Time;durP1;ratioP1;P1;durP2;ratioP2;P2;SDS_P1;SDS_P2;PMS_P1;PMS_P2;Temp;Humidity;BMP_temperature;BMP_pressure;BME280_temperature;BME280_humidity;BME280_pressure;Samples;Min_cycle;Max_cycle;Signal;HPM_P1;HPM_P2
2023/05/10 00:01:23;;;;;;;0.20;0.20;;;13.10;99.90;;;;;;4999233;28;20046;-66
2023/05/10 00:03:48;;;;;;;3.38;0.50;;;13.10;99.90;;;;;;5007927;28;20038;-66
2023/05/10 00:06:14;;;;;;;0.13;0.13;;;13.00;99.90;;;;;;4995569;28;20052;-66
2023/05/10 00:08:39;;;;;;;0.13;0.13;;;13.00;99.90;;;;;;5004018;28;20398;-66
2023/05/10 00:11:05;;;;;;;0.05;0.05;;;13.00;99.90;;;;;;5014839;28;20121;-66
2023/05/10 00:13:31;;;;;;;0.25;0.25;;;13.00;99.90;;;;;;5002666;28;20093;-66
2023/05/10 00:15:57;;;;;;;0.20;0.20;;;13.00;99.90;;;;;;5003921;28;20485;-66
2023/05/10 00:18:23;;;;;;;0.00;0.00;;;13.00;99.90;;;;;;5014854;28;20049;-66
2023/05/10 00:20:48;;;;;;;0.20;0.20;;;13.00;99.90;;;;;;5002935;28;20081;-66
2023/05/10 00:23:14;;;;;;;0.45;0.45;;;13.00;99.90;;;;;;5006045;28;20057;-66
2023/05/10 00:25:40;;;;;;;0.00;0.00;;;13.00;99.90;;;;;;5017949;28;20496;-66
2023/05/10 00:28:05;;;;;;;0.10;0.10;;;13.00;99.90;;;;;;5003526;28;20054;-66
2023/05/10 00:30:31;;;;;;;0.00;0.00;;;13.00;99.90;;;;;;4985353;28;20038;-66
2023/05/10 00:32:56;;;;;;;0.00;0.00;;;13.00;99.90;;;;;;4998664;28;20064;-66
2023/05/10 00:35:22;;;;;;;0.10;0.10;;;13.00;99.90;;;;;;4990580;28;20046;-66
2023/05/10 00:37:48;;;;;;;0.10;0.10;;;13.10;99.90;;;;;;5005230;28;20042;-66
2023/05/10 00:40:14;;;;;;;0.10;0.10;;;13.00;99.90;;;;;;5004094;28;20397;-66
2023/05/10 00:42:40;;;;;;;0.00;0.00;;;13.00;99.90;;;;;;5003581;28;20046;-66
2023/05/10 00:45:07;;;;;;;0.00;0.00;;;13.00;99.90;;;;;;5002473;28;20050;-66
2023/05/10 00:47:33;;;;;;;0.10;0.10;;;13.00;99.90;;;;;;5006251;28;20044;-66
2023/05/10 00:50:00;;;;;;;0.00;0.00;;;13.00;99.90;;;;;;4997409;28;20042;-66
2023/05/10 00:52:27;;;;;;;0.10;0.10;;;13.00;99.90;;;;;;4999186;28;20072;-66
2023/05/10 00:54:53;;;;;;;2.05;0.28;;;13.00;99.90;;;;;;4986190;28;20315;-66
2023/05/10 00:57:19;;;;;;;0.17;0.17;;;12.90;99.90;;;;;;4997358;28;20478;-66
2023/05/10 00:59:45;;;;;;;0.20;0.20;;;12.90;99.90;;;;;;5001610;28;20496;-66
2023/05/10 01:02:11;;;;;;;0.10;0.10;;;12.90;99.90;;;;;;5005892;28;20069;-65
2023/05/10 01:04:38;;;;;;;0.10;0.10;;;12.90;99.90;;;;;;4996715;28;20038;-66
2023/05/10 01:07:03;;;;;;;0.20;0.20;;;12.90;99.90;;;;;;4995993;28;20449;-66
2023/05/10 01:09:29;;;;;;;0.17;0.17;;;12.90;99.90;;;;;;4997160;28;20046;-66
2023/05/10 01:11:56;;;;;;;2.38;0.77;;;12.90;99.90;;;;;;5004806;28;20056;-66
2023/05/10 01:14:21;;;;;;;0.10;0.10;;;12.90;99.90;;;;;;4996629;28;20061;-66
2023/05/10 01:16:49;;;;;;;0.28;0.28;;;12.90;99.90;;;;;;5016142;28;20393;-66
2023/05/10 01:19:23;;;;;;;0.65;0.60;;;12.90;99.90;;;;;;4998447;28;20042;-66
2023/05/10 01:22:26;;;;;;;0.13;0.13;;;12.90;99.90;;;;;;5003268;28;20049;-66
2023/05/10 01:25:39;;;;;;;0.30;0.30;;;12.90;99.90;;;;;;5007492;28;20050;-65
2023/05/10 01:28:53;;;;;;;0.55;0.55;;;12.90;99.90;;;;;;4924799;29;20059;-65
2023/05/10 01:31:46;;;;;;;0.47;0.35;;;12.90;99.90;;;;;;5006922;28;20061;-66
2023/05/10 01:34:18;;;;;;;0.20;0.20;;;12.90;99.90;;;;;;5005139;28;20456;-66
2023/05/10 01:36:50;;;;;;;0.00;0.00;;;12.90;99.90;;;;;;5004666;28;20046;-65
2023/05/10 01:39:47;;;;;;;0.20;0.20;;;12.90;99.90;;;;;;5001276;28;20047;-65
2023/05/10 01:42:23;;;;;;;1.85;1.48;;;12.90;99.90;;;;;;4999385;28;20057;-66
2023/05/10 01:45:11;;;;;;;0.40;0.40;;;12.90;99.90;;;;;;5004493;28;20509;-66
2023/05/10 01:47:36;;;;;;;0.10;0.10;;;12.90;99.90;;;;;;4989552;28;20046;-66
2023/05/10 01:50:06;;;;;;;0.85;0.63;;;12.90;99.90;;;;;;5010933;28;20504;-66
2023/05/10 01:52:43;;;;;;;0.17;0.17;;;12.90;99.90;;;;;;5012017;28;20046;-66
2023/05/10 01:55:14;;;;;;;0.68;0.57;;;12.90;99.90;;;;;;5007728;28;20044;-66
2023/05/10 01:57:43;;;;;;;0.10;0.10;;;12.90;99.90;;;;;;5002497;28;20080;-66
2023/05/10 02:00:10;;;;;;;0.10;0.10;;;12.90;99.90;;;;;;5005108;28;20038;-65
2023/05/10 02:02:40;;;;;;;0.25;0.25;;;12.90;99.90;;;;;;5006346;28;20041;-65
2023/05/10 02:05:07;;;;;;;0.40;0.40;;;12.90;99.90;;;;;;5005009;28;20060;-66
2023/05/10 02:07:36;;;;;;;0.15;0.15;;;12.90;99.90;;;;;;5013371;28;20045;-65
2023/05/10 02:10:04;;;;;;;0.20;0.20;;;12.90;99.90;;;;;;4982849;28;20050;-65
2023/05/10 02:12:31;;;;;;;0.10;0.10;;;13.00;99.90;;;;;;5003215;28;20056;-65
2023/05/10 02:14:59;;;;;;;0.57;0.57;;;13.00;99.90;;;;;;5011130;28;20436;-65
2023/05/10 02:17:25;;;;;;;0.03;0.03;;;12.90;99.90;;;;;;5006176;28;20042;-65
2023/05/10 02:19:53;;;;;;;0.00;0.00;;;13.00;99.90;;;;;;5004431;28;20049;-65
2023/05/10 02:22:19;;;;;;;0.15;0.15;;;12.90;99.90;;;;;;5007881;28;20532;-65
2023/05/10 02:24:46;;;;;;;0.20;0.20;;;12.90;99.90;;;;;;5016320;28;20046;-65
2023/05/10 02:27:13;;;;;;;0.70;0.63;;;12.90;99.90;;;;;;5010999;28;20401;-65
2023/05/10 02:29:39;;;;;;;1.38;0.63;;;13.00;99.90;;;;;;5012744;28;20085;-65
2023/05/10 02:32:06;;;;;;;0.08;0.08;;;13.00;99.90;;;;;;4998180;28;20038;-65
2023/05/10 02:34:32;;;;;;;0.10;0.10;;;13.00;99.90;;;;;;5006559;28;20042;-65
2023/05/10 02:36:59;;;;;;;0.20;0.20;;;13.00;99.90;;;;;;5005216;28;20047;-65
2023/05/10 02:39:28;;;;;;;0.00;0.00;;;13.00;99.90;;;;;;4993583;28;20046;-65
2023/05/10 02:41:55;;;;;;;0.00;0.00;;;13.00;99.90;;;;;;5003480;28;20045;-65
2023/05/10 02:44:22;;;;;;;0.50;0.50;;;12.90;99.90;;;;;;5002192;28;20552;-65
2023/05/10 02:46:48;;;;;;;0.10;0.10;;;12.90;99.90;;;;;;5012637;28;20107;-65
2023/05/10 02:49:14;;;;;;;0.10;0.10;;;12.90;99.90;;;;;;5003920;28;20136;-65
2023/05/10 02:51:50;;;;;;;0.00;0.00;;;12.90;99.90;;;;;;5004409;28;20053;-65
2023/05/10 02:54:20;;;;;;;0.00;0.00;;;12.90;99.90;;;;;;5004692;28;20050;-65
2023/05/10 02:57:00;;;;;;;0.03;0.03;;;12.90;99.90;;;;;;5017667;28;20046;-64
2023/05/10 02:59:26;;;;;;;0.00;0.00;;;12.90;99.90;;;;;;5003506;28;20050;-65
2023/05/10 03:01:52;;;;;;;0.17;0.17;;;12.80;99.90;;;;;;5009738;28;20508;-65
2023/05/10 03:04:18;;;;;;;0.70;0.68;;;12.90;99.90;;;;;;5009602;28;20042;-65
2023/05/10 03:06:44;;;;;;;0.00;0.00;;;12.80;99.90;;;;;;5000571;28;20679;-65
2023/05/10 03:09:11;;;;;;;0.10;0.10;;;12.90;99.90;;;;;;5012158;28;20060;-65
2023/05/10 03:11:47;;;;;;;0.00;0.00;;;12.80;99.90;;;;;;5006787;28;20502;-65
2023/05/10 03:14:41;;;;;;;0.10;0.10;;;12.80;99.90;;;;;;5013361;28;20038;-65
2023/05/10 03:17:14;;;;;;;0.10;0.10;;;12.90;99.90;;;;;;4993069;28;20049;-65
2023/05/10 03:19:47;;;;;;;0.00;0.00;;;12.90;99.90;;;;;;5005670;28;20038;-65
2023/05/10 03:22:21;;;;;;;0.00;0.00;;;12.90;99.90;;;;;;5010419;28;20048;-65
2023/05/10 03:24:48;;;;;;;0.08;0.08;;;12.90;99.90;;;;;;5007445;28;20077;-65
2023/05/10 03:27:14;;;;;;;0.08;0.08;;;12.80;99.90;;;;;;5003946;28;20781;-65
2023/05/10 03:29:42;;;;;;;0.00;0.00;;;12.80;99.90;;;;;;5003231;28;20046;-65
2023/05/10 03:32:08;;;;;;;0.10;0.10;;;12.80;99.90;;;;;;5000063;28;20042;-65
2023/05/10 03:34:33;;;;;;;0.00;0.00;;;12.80;99.90;;;;;;5012168;28;20129;-65
2023/05/10 03:36:59;;;;;;;0.10;0.10;;;12.80;99.90;;;;;;5000872;28;20132;-66
2023/05/10 03:39:24;;;;;;;0.00;0.00;;;12.80;99.90;;;;;;5007601;28;20051;-65
2023/05/10 03:41:50;;;;;;;0.10;0.10;;;12.80;99.90;;;;;;5003756;28;20045;-65
2023/05/10 03:44:16;;;;;;;0.08;0.08;;;12.80;99.90;;;;;;5004978;28;20134;-65
2023/05/10 03:46:41;;;;;;;0.65;0.28;;;12.80;99.90;;;;;;5003021;28;20046;-66
2023/05/10 03:49:07;;;;;;;0.10;0.10;;;12.80;99.90;;;;;;5010719;28;20066;-65
2023/05/10 03:51:32;;;;;;;0.00;0.00;;;12.80;99.90;;;;;;5011447;28;20045;-65
2023/05/10 03:53:58;;;;;;;0.00;0.00;;;12.80;99.90;;;;;;5005871;28;20034;-65
2023/05/10 03:56:23;;;;;;;0.00;0.00;;;12.80;99.90;;;;;;5014602;28;20045;-65
2023/05/10 03:58:49;;;;;;;0.00;0.00;;;12.80;99.90;;;;;;5012518;28;20796;-65
2023/05/10 04:01:15;;;;;;;0.08;0.08;;;12.80;99.90;;;;;;5003086;28;20405;-65
2023/05/10 04:03:40;;;;;;;0.00;0.00;;;12.80;99.90;;;;;;5007496;28;20046;-65
2023/05/10 04:06:08;;;;;;;0.10;0.10;;;12.80;99.90;;;;;;5005597;28;20056;-65
2023/05/10 04:08:33;;;;;;;0.00;0.00;;;12.80;99.90;;;;;;5009153;28;20493;-65
2023/05/10 04:11:09;;;;;;;0.00;0.00;;;12.80;99.90;;;;;;5012831;28;20091;-65
2023/05/10 04:13:35;;;;;;;0.10;0.10;;;12.80;99.90;;;;;;5004439;28;20050;-65
2023/05/10 04:16:01;;;;;;;0.10;0.10;;;12.80;99.90;;;;;;5003009;28;20050;-65
2023/05/10 04:18:27;;;;;;;0.10;0.10;;;12.80;99.90;;;;;;4989417;28;20060;-65
2023/05/10 04:20:52;;;;;;;0.10;0.10;;;12.70;99.90;;;;;;5009614;28;20038;-65
2023/05/10 04:23:18;;;;;;;0.10;0.10;;;12.80;99.90;;;;;;5004166;28;20484;-65
2023/05/10 04:25:43;;;;;;;0.10;0.10;;;12.70;99.90;;;;;;5009422;28;20100;-65
2023/05/10 04:28:09;;;;;;;0.10;0.10;;;12.80;99.90;;;;;;4996086;28;20057;-65
2023/05/10 04:30:34;;;;;;;0.10;0.10;;;12.80;99.90;;;;;;5013317;28;20045;-65
2023/05/10 04:33:01;;;;;;;0.10;0.10;;;12.80;99.90;;;;;;5004513;28;20383;-64
2023/05/10 04:35:27;;;;;;;0.00;0.00;;;12.80;99.90;;;;;;5007872;28;20077;-65
2023/05/10 04:37:53;;;;;;;0.00;0.00;;;12.80;99.90;;;;;;4994258;28;20486;-65
2023/05/10 04:40:19;;;;;;;0.10;0.10;;;12.80;99.90;;;;;;5009699;28;20040;-65
2023/05/10 04:42:45;;;;;;;0.10;0.10;;;12.80;99.90;;;;;;5007956;28;20035;-65
2023/05/10 04:45:11;;;;;;;0.08;0.08;;;12.80;99.90;;;;;;5009981;28;20044;-65
2023/05/10 04:47:37;;;;;;;0.10;0.10;;;12.80;99.90;;;;;;5001889;28;20490;-65
2023/05/10 04:50:03;;;;;;;0.08;0.08;;;12.80;99.90;;;;;;5003899;28;20088;-65
2023/05/10 04:52:29;;;;;;;0.00;0.00;;;12.80;99.90;;;;;;5011594;28;20050;-65
2023/05/10 04:54:55;;;;;;;0.10;0.10;;;12.70;99.90;;;;;;5001283;28;20044;-65
2023/05/10 04:57:21;;;;;;;0.10;0.10;;;12.80;99.90;;;;;;5011107;28;20452;-65
2023/05/10 04:59:46;;;;;;;0.10;0.10;;;12.80;99.90;;;;;;5009821;28;20042;-65
2023/05/10 05:02:12;;;;;;;0.10;0.10;;;12.80;99.90;;;;;;5007019;28;20049;-65
2023/05/10 05:04:37;;;;;;;0.00;0.00;;;12.80;99.90;;;;;;5002048;28;20497;-65
2023/05/10 05:07:03;;;;;;;0.10;0.10;;;12.70;99.90;;;;;;5011388;28;20057;-65
2023/05/10 05:09:28;;;;;;;0.10;0.10;;;12.80;99.90;;;;;;5000522;28;20042;-65
2023/05/10 05:11:54;;;;;;;0.00;0.00;;;12.80;99.90;;;;;;5007662;28;20045;-65
2023/05/10 05:14:20;;;;;;;0.10;0.10;;;12.80;99.90;;;;;;5009515;28;20076;-65
2023/05/10 05:16:46;;;;;;;0.30;0.30;;;12.80;99.90;;;;;;5005624;28;20054;-65
2023/05/10 05:19:12;;;;;;;0.10;0.10;;;12.80;99.90;;;;;;5000189;28;20386;-65
2023/05/10 05:21:37;;;;;;;0.00;0.00;;;12.80;99.90;;;;;;4984352;28;20486;-65
2023/05/10 05:24:04;;;;;;;0.00;0.00;;;12.70;99.90;;;;;;4985950;28;20057;-65
2023/05/10 05:26:29;;;;;;;0.10;0.10;;;12.80;99.90;;;;;;5005004;28;20391;-65
2023/05/10 05:28:55;;;;;;;0.10;0.10;;;12.70;99.90;;;;;;5005725;28;20113;-65
2023/05/10 05:31:21;;;;;;;0.00;0.00;;;12.80;99.90;;;;;;4997203;28;20073;-66
2023/05/10 05:33:46;;;;;;;0.10;0.10;;;12.80;99.90;;;;;;4998131;28;20481;-65
2023/05/10 05:36:12;;;;;;;0.25;0.20;;;12.80;99.90;;;;;;5001557;28;20049;-65
2023/05/10 05:38:37;;;;;;;0.10;0.10;;;12.80;99.90;;;;;;4985234;28;20141;-66
2023/05/10 05:41:03;;;;;;;0.00;0.00;;;12.80;99.90;;;;;;4997901;28;20129;-66
2023/05/10 05:43:29;;;;;;;0.10;0.05;;;12.90;99.90;;;;;;5010264;28;20103;-65
2023/05/10 05:45:54;;;;;;;0.10;0.10;;;12.80;99.90;;;;;;4983974;28;20042;-65
2023/05/10 05:48:20;;;;;;;0.00;0.00;;;12.90;99.90;;;;;;5017060;28;20552;-66
2023/05/10 05:50:46;;;;;;;0.10;0.10;;;12.90;99.90;;;;;;5009257;28;20040;-65
2023/05/10 05:53:12;;;;;;;0.00;0.00;;;12.90;99.90;;;;;;4996671;28;20490;-66
2023/05/10 05:55:37;;;;;;;0.20;0.20;;;12.90;99.90;;;;;;4989459;28;20447;-66
2023/05/10 05:58:03;;;;;;;0.10;0.10;;;12.90;99.90;;;;;;5003184;28;20057;-66
2023/05/10 06:00:28;;;;;;;0.10;0.10;;;12.90;99.90;;;;;;5001252;28;20034;-66
2023/05/10 06:02:54;;;;;;;0.10;0.10;;;13.00;99.90;;;;;;4994939;28;20038;-65
2023/05/10 06:05:20;;;;;;;0.10;0.10;;;13.00;99.90;;;;;;5002917;28;20062;-65
2023/05/10 06:07:46;;;;;;;0.10;0.10;;;12.90;99.90;;;;;;5006487;28;20046;-66
2023/05/10 06:10:12;;;;;;;0.03;0.03;;;13.00;99.90;;;;;;4994580;28;20117;-66
2023/05/10 06:12:37;;;;;;;0.08;0.08;;;13.00;99.90;;;;;;5013018;28;20076;-66
2023/05/10 06:15:04;;;;;;;0.03;0.03;;;13.00;99.90;;;;;;5009362;28;20046;-66
2023/05/10 06:17:29;;;;;;;0.00;0.00;;;12.90;99.90;;;;;;5004640;28;20106;-66
2023/05/10 06:19:56;;;;;;;0.10;0.10;;;13.00;99.90;;;;;;5008836;28;20077;-66
2023/05/10 06:22:24;;;;;;;0.10;0.10;;;13.00;99.90;;;;;;4979512;28;20049;-66
2023/05/10 06:24:49;;;;;;;0.00;0.00;;;13.00;99.90;;;;;;5008394;28;20052;-66
2023/05/10 06:27:15;;;;;;;0.00;0.00;;;13.00;99.90;;;;;;4990758;28;20054;-66
2023/05/10 06:29:41;;;;;;;0.10;0.10;;;13.00;99.90;;;;;;4997784;28;20042;-66
2023/05/10 06:32:06;;;;;;;0.10;0.10;;;13.00;99.90;;;;;;4995412;28;20046;-66
2023/05/10 06:34:32;;;;;;;0.10;0.10;;;13.00;99.90;;;;;;4986194;28;20046;-66
2023/05/10 06:36:58;;;;;;;0.20;0.20;;;13.10;99.90;;;;;;5010122;28;20041;-67
2023/05/10 06:39:23;;;;;;;0.10;0.10;;;13.00;99.90;;;;;;5005626;28;20038;-67
2023/05/10 06:41:49;;;;;;;0.10;0.10;;;13.10;99.90;;;;;;5015962;28;20123;-67
2023/05/10 06:44:14;;;;;;;0.10;0.10;;;13.10;99.90;;;;;;5006128;28;20046;-67
2023/05/10 06:46:41;;;;;;;0.30;0.30;;;13.10;99.90;;;;;;5017034;28;20038;-67
2023/05/10 06:49:06;;;;;;;0.10;0.10;;;13.20;99.90;;;;;;5010061;28;20411;-66
2023/05/10 06:51:32;;;;;;;0.00;0.00;;;13.20;99.90;;;;;;5003508;28;20041;-66
2023/05/10 06:53:58;;;;;;;0.00;0.00;;;13.10;99.90;;;;;;5008157;28;20168;-67
2023/05/10 06:56:23;;;;;;;0.00;0.00;;;13.10;99.90;;;;;;5007056;28;20049;-67
2023/05/10 06:58:49;;;;;;;0.10;0.10;;;13.20;99.90;;;;;;4998350;28;20078;-67
2023/05/10 07:01:14;;;;;;;0.40;0.40;;;13.10;99.90;;;;;;5009471;28;20117;-67
2023/05/10 07:03:40;;;;;;;0.10;0.10;;;13.10;99.90;;;;;;5004732;28;20437;-66
2023/05/10 07:06:07;;;;;;;0.57;0.57;;;13.10;99.90;;;;;;5011158;28;20123;-67
2023/05/10 07:08:33;;;;;;;0.95;0.47;;;13.10;99.90;;;;;;5013120;28;20038;-66
2023/05/10 07:11:04;;;;;;;2.65;0.43;;;13.00;99.90;;;;;;5002981;28;20141;-67
2023/05/10 07:13:31;;;;;;;0.00;0.00;;;13.10;99.90;;;;;;4993409;28;20489;-66
2023/05/10 07:15:57;;;;;;;0.10;0.10;;;13.10;99.90;;;;;;5010473;28;20054;-66
2023/05/10 07:18:23;;;;;;;0.10;0.10;;;13.10;99.90;;;;;;4998137;28;20089;-67
2023/05/10 07:20:48;;;;;;;0.05;0.05;;;13.10;99.90;;;;;;5003525;28;20128;-67
2023/05/10 07:23:14;;;;;;;0.10;0.10;;;13.10;99.90;;;;;;5001486;28;20120;-67
2023/05/10 07:25:40;;;;;;;0.10;0.10;;;13.10;99.90;;;;;;5014272;28;20053;-67
2023/05/10 07:28:05;;;;;;;0.10;0.10;;;13.10;99.90;;;;;;4990908;28;20208;-67
2023/05/10 07:30:31;;;;;;;0.85;0.45;;;13.10;99.90;;;;;;5003164;28;20407;-67
2023/05/10 07:32:57;;;;;;;0.00;0.00;;;13.10;99.90;;;;;;5008592;28;20051;-68
2023/05/10 07:35:22;;;;;;;0.03;0.03;;;13.10;99.90;;;;;;5004596;28;20432;-68
2023/05/10 07:37:48;;;;;;;0.10;0.10;;;13.20;99.90;;;;;;5000132;28;20132;-68
2023/05/10 07:40:13;;;;;;;0.00;0.00;;;13.20;99.90;;;;;;5017207;28;20036;-67
2023/05/10 07:42:39;;;;;;;0.10;0.10;;;13.30;99.90;;;;;;5009911;28;20042;-66
2023/05/10 07:45:05;;;;;;;0.30;0.30;;;13.30;99.90;;;;;;5011466;28;20037;-66
2023/05/10 07:47:33;;;;;;;0.00;0.00;;;13.30;99.90;;;;;;5002279;28;20160;-68
2023/05/10 07:49:58;;;;;;;0.00;0.00;;;13.40;99.90;;;;;;4998782;28;20046;-67
2023/05/10 07:52:26;;;;;;;0.30;0.30;;;13.50;99.90;;;;;;5015577;28;20042;-68
2023/05/10 07:54:53;;;;;;;0.10;0.10;;;13.50;99.90;;;;;;5001649;28;20041;-67
2023/05/10 07:57:19;;;;;;;0.10;0.10;;;13.50;99.90;;;;;;5006932;28;20043;-68
2023/05/10 07:59:45;;;;;;;0.10;0.10;;;13.50;99.90;;;;;;5019117;28;20037;-66
2023/05/10 08:02:10;;;;;;;0.10;0.10;;;13.50;99.90;;;;;;5005447;28;20045;-67
2023/05/10 08:04:36;;;;;;;0.10;0.10;;;13.70;99.90;;;;;;5006388;28;20417;-68
2023/05/10 08:07:01;;;;;;;0.10;0.10;;;13.70;99.90;;;;;;5008165;28;20959;-68
2023/05/10 08:09:27;;;;;;;3.72;0.30;;;13.70;99.90;;;;;;4995986;28;20489;-66
2023/05/10 08:11:53;;;;;;;19.15;0.90;;;13.70;99.90;;;;;;5006712;28;20050;-67
2023/05/10 08:14:18;;;;;;;0.43;0.43;;;13.70;99.90;;;;;;5009313;28;20037;-67
2023/05/10 08:16:44;;;;;;;0.05;0.05;;;13.70;99.90;;;;;;5015610;28;20049;-67
2023/05/10 08:19:09;;;;;;;0.00;0.00;;;13.70;99.90;;;;;;4995632;28;20057;-67
2023/05/10 08:21:35;;;;;;;0.10;0.10;;;13.60;99.90;;;;;;5006013;28;20120;-67
2023/05/10 08:24:01;;;;;;;0.10;0.10;;;13.60;99.90;;;;;;4990576;28;20042;-67
2023/05/10 08:26:27;;;;;;;0.40;0.40;;;13.70;99.90;;;;;;5003647;28;20116;-67
2023/05/10 08:28:53;;;;;;;0.10;0.10;;;13.60;99.90;;;;;;4999479;28;20045;-67
2023/05/10 08:31:18;;;;;;;0.10;0.10;;;13.60;99.90;;;;;;5012414;28;20712;-66
2023/05/10 08:33:44;;;;;;;0.00;0.00;;;13.60;99.90;;;;;;4998152;28;20109;-67
2023/05/10 08:36:10;;;;;;;0.30;0.30;;;13.60;99.90;;;;;;4998897;28;20037;-66
2023/05/10 08:38:37;;;;;;;0.30;0.30;;;13.70;99.90;;;;;;5009850;28;20037;-66
2023/05/10 08:41:04;;;;;;;0.03;0.03;;;13.60;99.90;;;;;;5007604;28;20350;-66
2023/05/10 08:43:30;;;;;;;0.10;0.10;;;13.70;99.90;;;;;;4997922;28;20049;-67
2023/05/10 08:45:56;;;;;;;0.52;0.47;;;13.70;99.90;;;;;;4997654;28;20045;-66
2023/05/10 08:48:24;;;;;;;0.13;0.13;;;13.70;99.90;;;;;;5006036;28;20077;-66
2023/05/10 08:50:54;;;;;;;0.00;0.00;;;13.80;99.90;;;;;;5001497;28;20470;-67
2023/05/10 08:53:20;;;;;;;0.17;0.17;;;13.80;99.90;;;;;;5002374;28;20052;-67
2023/05/10 08:55:46;;;;;;;0.00;0.00;;;13.80;99.90;;;;;;4984784;28;20069;-67
2023/05/10 08:58:12;;;;;;;0.10;0.10;;;13.90;99.90;;;;;;4995572;28;20078;-67
2023/05/10 09:00:38;;;;;;;0.00;0.00;;;13.90;99.90;;;;;;4998332;28;20042;-67
2023/05/10 09:03:05;;;;;;;0.85;0.45;;;13.90;99.90;;;;;;5000431;28;20039;-67
2023/05/10 09:05:31;;;;;;;0.00;0.00;;;14.00;99.90;;;;;;5005373;28;20517;-67
2023/05/10 09:07:56;;;;;;;0.45;0.45;;;13.90;99.90;;;;;;4998714;28;20038;-67
2023/05/10 09:10:25;;;;;;;0.63;0.63;;;13.90;99.90;;;;;;5001783;28;20046;-67
2023/05/10 09:12:52;;;;;;;0.20;0.20;;;14.00;99.90;;;;;;5008743;28;20496;-67
2023/05/10 09:15:19;;;;;;;0.10;0.10;;;14.00;99.90;;;;;;5009807;28;20050;-67
2023/05/10 09:17:46;;;;;;;0.65;0.30;;;14.00;99.90;;;;;;4996568;28;20086;-67
2023/05/10 09:20:12;;;;;;;2.45;0.90;;;14.00;99.90;;;;;;5010116;28;20077;-67
2023/05/10 09:22:38;;;;;;;0.10;0.10;;;14.00;99.90;;;;;;4997645;28;20073;-67
2023/05/10 09:25:09;;;;;;;0.10;0.10;;;14.00;99.90;;;;;;5007486;28;20038;-67
2023/05/10 09:27:36;;;;;;;0.15;0.15;;;14.00;99.90;;;;;;5006666;28;20050;-67
2023/05/10 09:30:03;;;;;;;0.20;0.20;;;14.00;99.90;;;;;;4997861;28;20050;-67
2023/05/10 09:32:40;;;;;;;0.20;0.20;;;14.10;99.90;;;;;;5011930;28;20524;-67
2023/05/10 09:35:14;;;;;;;0.35;0.35;;;14.10;99.90;;;;;;5000058;28;20084;-67
2023/05/10 09:37:43;;;;;;;;;;;14.10;99.90;;;;;;4999326;28;20402;-67
2023/05/10 09:40:13;;;;;;;0.52;0.52;;;14.10;99.90;;;;;;4989585;28;20384;-67
2023/05/10 09:42:40;;;;;;;0.00;0.00;;;14.20;99.90;;;;;;5006507;28;20046;-67
2023/05/10 09:45:07;;;;;;;0.43;0.43;;;14.20;99.90;;;;;;4996529;28;20049;-67
2023/05/10 09:47:36;;;;;;;0.03;0.03;;;14.20;99.90;;;;;;4983347;28;20064;-67
2023/05/10 09:50:05;;;;;;;0.08;0.08;;;14.20;99.90;;;;;;4980584;28;20065;-67
2023/05/10 09:52:50;;;;;;;0.00;0.00;;;14.10;99.90;;;;;;5000521;28;20039;-67
2023/05/10 09:55:16;;;;;;;0.05;0.05;;;14.10;99.90;;;;;;5002609;28;20448;-67
2023/05/10 09:57:42;;;;;;;0.10;0.10;;;14.20;99.90;;;;;;5002048;28;20045;-67
2023/05/10 10:00:09;;;;;;;0.20;0.20;;;14.20;99.90;;;;;;4991016;28;20049;-67
2023/05/10 10:02:36;;;;;;;0.10;0.10;;;14.20;99.90;;;;;;5006974;28;20104;-67
2023/05/10 10:05:03;;;;;;;0.10;0.10;;;14.20;99.90;;;;;;4979653;28;20069;-67
2023/05/10 10:07:29;;;;;;;0.10;0.10;;;14.20;99.90;;;;;;4987465;28;20050;-67
2023/05/10 10:09:55;;;;;;;0.20;0.20;;;14.10;99.90;;;;;;5009301;28;20069;-67
2023/05/10 10:12:21;;;;;;;0.28;0.28;;;14.20;99.90;;;;;;4988650;28;20046;-67
2023/05/10 10:14:50;;;;;;;0.00;0.00;;;14.30;99.90;;;;;;5010189;28;20052;-67
2023/05/10 10:17:17;;;;;;;0.20;0.20;;;14.30;99.90;;;;;;5010087;28;20042;-67
2023/05/10 10:19:43;;;;;;;0.10;0.10;;;14.40;99.90;;;;;;4988698;28;20050;-67
2023/05/10 10:22:11;;;;;;;1.98;0.65;;;14.40;99.90;;;;;;5009918;28;20109;-67
2023/05/10 10:24:38;;;;;;;0.10;0.10;;;14.60;99.90;;;;;;4988964;28;20132;-67
2023/05/10 10:27:35;;;;;;;0.05;0.05;;;14.60;99.90;;;;;;4995733;28;20070;-67
2023/05/10 10:30:36;;;;;;;0.20;0.20;;;14.80;99.90;;;;;;5002645;28;20438;-67
2023/05/10 10:33:30;;;;;;;0.10;0.10;;;14.80;99.90;;;;;;4989779;28;20490;-67
2023/05/10 10:35:59;;;;;;;0.10;0.10;;;14.90;99.90;;;;;;4988218;28;20061;-67
2023/05/10 10:38:25;;;;;;;0.10;0.10;;;14.90;99.90;;;;;;5012224;28;20149;-68
2023/05/10 10:41:10;;;;;;;0.13;0.13;;;15.10;99.90;;;;;;4987630;28;20659;-68
2023/05/10 10:43:36;;;;;;;0.10;0.10;;;15.10;99.90;;;;;;5009301;28;20046;-68
2023/05/10 10:46:17;;;;;;;0.00;0.00;;;15.10;99.90;;;;;;5001364;28;20400;-68
2023/05/10 10:49:08;;;;;;;0.00;0.00;;;15.20;99.90;;;;;;5009178;28;20054;-68
2023/05/10 10:51:38;;;;;;;0.47;0.47;;;15.20;99.90;;;;;;5006437;28;20077;-68
2023/05/10 10:54:12;;;;;;;0.20;0.20;;;15.20;99.90;;;;;;5011709;28;20046;-68
2023/05/10 10:56:38;;;;;;;0.00;0.00;;;15.20;99.90;;;;;;5010247;28;20133;-68
2023/05/10 10:59:04;;;;;;;0.10;0.10;;;15.30;99.90;;;;;;5009501;28;20461;-68
2023/05/10 11:01:35;;;;;;;0.20;0.20;;;15.30;99.90;;;;;;5002527;28;20042;-67
2023/05/10 11:04:00;;;;;;;0.10;0.10;;;15.20;99.90;;;;;;4999436;28;20045;-68
2023/05/10 11:06:33;;;;;;;2.00;0.65;;;15.20;99.90;;;;;;4999344;28;20046;-68
2023/05/10 11:09:06;;;;;;;0.10;0.10;;;15.20;99.90;;;;;;4999127;28;20044;-68
2023/05/10 11:11:33;;;;;;;0.30;0.30;;;15.20;99.90;;;;;;4998605;28;20230;-67
2023/05/10 11:14:05;;;;;;;0.10;0.10;;;15.10;99.90;;;;;;5011798;28;20044;-68
2023/05/10 11:16:42;;;;;;;0.00;0.00;;;15.10;99.90;;;;;;5009927;28;20050;-68
2023/05/10 11:19:10;;;;;;;0.88;0.35;;;15.00;99.90;;;;;;5003507;28;20058;-68
2023/05/10 11:21:46;;;;;;;0.52;0.52;;;15.10;99.90;;;;;;5002073;28;20046;-67
2023/05/10 11:24:22;;;;;;;0.10;0.10;;;15.10;99.90;;;;;;4987633;28;20050;-67
2023/05/10 11:26:51;;;;;;;0.10;0.10;;;15.20;99.90;;;;;;4982889;28;20065;-67
2023/05/10 11:29:17;;;;;;;0.00;0.00;;;15.20;99.90;;;;;;4995153;28;20404;-67
2023/05/10 11:31:45;;;;;;;0.08;0.08;;;15.20;99.90;;;;;;5009473;28;20419;-67
2023/05/10 11:34:10;;;;;;;0.50;0.35;;;15.30;99.90;;;;;;5012862;28;20042;-67
2023/05/10 11:36:37;;;;;;;0.10;0.10;;;15.40;99.90;;;;;;5002733;28;20515;-68
2023/05/10 11:39:03;;;;;;;0.20;0.20;;;15.40;99.90;;;;;;4987710;28;20041;-68
2023/05/10 11:41:30;;;;;;;0.10;0.10;;;15.40;99.90;;;;;;5005771;28;20038;-67
2023/05/10 11:43:56;;;;;;;0.10;0.10;;;15.50;99.90;;;;;;4985615;28;20050;-68
2023/05/10 11:46:26;;;;;;;0.10;0.10;;;15.50;99.90;;;;;;5006429;28;20060;-68
2023/05/10 11:48:55;;;;;;;0.98;0.38;;;15.60;99.90;;;;;;5010198;28;20052;-68
2023/05/10 11:51:22;;;;;;;0.55;0.32;;;15.70;99.90;;;;;;4985080;28;20540;-68
2023/05/10 11:53:50;;;;;;;0.10;0.10;;;15.90;99.90;;;;;;5001592;28;20050;-68
2023/05/10 11:56:15;;;;;;;0.30;0.30;;;15.90;99.90;;;;;;5001398;28;20132;-68
2023/05/10 11:58:41;;;;;;;0.00;0.00;;;16.10;99.90;;;;;;5004953;28;20125;-68
2023/05/10 12:01:08;;;;;;;0.50;0.45;;;16.10;99.90;;;;;;5009292;28;20038;-68
2023/05/10 12:03:34;;;;;;;0.68;0.68;;;16.20;99.90;;;;;;5000681;28;20046;-68
2023/05/10 12:06:01;;;;;;;0.13;0.13;;;16.20;99.90;;;;;;5009098;28;20038;-69
2023/05/10 12:08:28;;;;;;;0.10;0.10;;;16.40;99.90;;;;;;4979545;28;20042;-68
2023/05/10 12:11:08;;;;;;;0.55;0.55;;;16.40;99.90;;;;;;5013386;28;20170;-68
2023/05/10 12:13:40;;;;;;;0.15;0.15;;;16.40;99.90;;;;;;5008339;28;20037;-68
2023/05/10 12:16:22;;;;;;;0.17;0.17;;;16.50;99.90;;;;;;4999780;28;20048;-68
2023/05/10 12:18:52;;;;;;;0.15;0.15;;;16.50;99.90;;;;;;5002234;28;20052;-68
2023/05/10 12:21:19;;;;;;;0.28;0.28;;;16.60;99.90;;;;;;5004951;28;20046;-68
2023/05/10 12:23:46;;;;;;;0.40;0.40;;;16.60;99.90;;;;;;5003827;28;20037;-68
2023/05/10 12:26:12;;;;;;;1.75;0.50;;;16.80;99.90;;;;;;5006973;28;20058;-68
2023/05/10 12:28:41;;;;;;;0.50;0.50;;;16.80;99.90;;;;;;5011415;28;20037;-68
2023/05/10 12:31:07;;;;;;;0.13;0.13;;;17.40;99.90;;;;;;5002408;28;20390;-68
2023/05/10 12:33:42;;;;;;;0.10;0.10;;;17.50;99.90;;;;;;5001608;28;20069;-68
2023/05/10 12:36:09;;;;;;;0.40;0.40;;;17.30;99.90;;;;;;5006500;28;20971;-68
2023/05/10 12:38:47;;;;;;;0.30;0.30;;;17.20;99.90;;;;;;5009598;28;20076;-68
2023/05/10 12:41:17;;;;;;;0.63;0.63;;;17.40;99.90;;;;;;5005940;28;20045;-68
2023/05/10 12:43:43;;;;;;;0.45;0.45;;;17.50;99.90;;;;;;4987904;28;21729;-68
2023/05/10 12:46:10;;;;;;;0.20;0.20;;;17.40;99.90;;;;;;5002953;28;20050;-68
2023/05/10 12:48:37;;;;;;;0.10;0.10;;;17.30;99.90;;;;;;5000192;28;20042;-68
2023/05/10 12:51:04;;;;;;;0.35;0.35;;;17.20;99.90;;;;;;5004050;28;20042;-67
2023/05/10 12:53:30;;;;;;;0.22;0.22;;;17.00;99.90;;;;;;5005236;28;20038;-67